Hayden, CO

7:05 PM MDT en Abril 18, 2015 (GMT -0600)
HAYDEN, COLORADO (DOWN TOWN) | | Change Station
CLOSE
Current Station
Estación meteorológica personal
Location: Hayden, CO
Altura: 6352 ft
Estaciones meteorológicas cercanas

Alt 6352 ft 40.50 °N, 107.25 °W | Updated 2 seconds ago

Mostly Cloudy
Muy nublado
34.7 ° F
Sensación térmica 35 ° F
N
2.6
Viento Variable Viento desde Oeste
Gusts 9.0 mph

Hoy
Alta -- | Baja -- ° F
--% Posibilidad de precipitaciones
Ayer
Alta -- | Baja -- ° F
Precip. -- pul
6:26 AM 7:51 PM
Luna nueva, 0% visible
Presión 30.02 pul
Visibilidad 10.0 Millas
Nubes Muy nublado 200 ft
Vientos helados 35 ° F
Punto de rocío 33 ° F
Humedad 96%
Precipitaciones 0.46 pul
Espesor de la nieve No disponible.
UV 0 de una escala de 12
Polen 3.80 de una escala de 12
Calidad del aire No disponible.
Flu Activity Local Activity
METAR KHDN 190055Z AUTO 26004KT 10SM BKN002 01/M01 A3002 RMK AO1 P0001

More Conditions Fewer Conditions

Presión 30.02 pul
Visibilidad 10.0 Millas
Nubes Muy nublado 200 ft
Vientos helados 35 ° F
Punto de rocío 33 ° F
Humedad 96%
Precipitaciones 0.46 pul
Espesor de la nieve No disponible.
UV 0 de una escala de 12
Polen 3.80 de una escala de 12
Calidad del aire No disponible.
Flu Activity Local Activity
METAR KHDN 190055Z AUTO 26004KT 10SM BKN002 01/M01 A3002 RMK AO1 P0001

More Conditions Fewer Conditions

10-Day Weather Forecast

Almanac

Astronomía

Apr. 18, 2015 Salida Puesta
Hora real
Crepúsculo civil
Crepúsculo náutico
Crepúsculo astronómico
Luna
Horas de luz
Horas de luz
Tomorrow will be .
, % of the Moon is Illuminated

Extremos de hoy

Máximos del estado Bajos del estado

Community

WunderPhotos

Upload Photos

1,814,609 ¡fotos cargadas!

WunderBlogs® & News

Nearby

Calidad del aire

  Calidad del aire Índice AQ Contaminante
Not available.

Grosos de nieve

Estación Profundido Altura

Actividad de terremotos

Ciudad Distance Mag. Tiempo y dato
Magnitud mínima muestra es 2,5.

Temperaturas de aguas costeras

Lugar Temperatura

Stations

Estaciones meteorológicas cercanas

Ubicación de la estación Temp. Vientos helados Punto de rocío Humedad Viento Precip. Alt Actualizado Tipo